Time;durP1;ratioP1;P1;durP2;ratioP2;P2;SDS_P1;SDS_P2;PMS_P1;PMS_P2;Temp;Humidity;BMP_temperature;BMP_pressure;BME280_temperature;BME280_humidity;BME280_pressure;Samples;Min_cycle;Max_cycle;Signal;HPM_P1;HPM_P2
2021/09/03 00:01:32;;;;;;;29.47;18.67;;;13.80;1.00;;;;;;5012915;28;20612;-58
2021/09/03 00:03:59;;;;;;;27.47;19.13;;;13.80;1.00;;;;;;5012880;28;20274;-60
2021/09/03 00:06:27;;;;;;;26.90;18.93;;;13.80;1.00;;;;;;5012700;28;20257;-59
2021/09/03 00:08:54;;;;;;;29.20;19.67;;;13.80;1.00;;;;;;5012936;28;20210;-58
2021/09/03 00:11:20;;;;;;;31.10;19.97;;;13.80;1.00;;;;;;5013168;28;20625;-59
2021/09/03 00:13:47;;;;;;;28.20;18.57;;;13.80;1.00;;;;;;5012708;28;20647;-59
2021/09/03 00:16:14;;;;;;;30.07;19.47;;;13.80;1.00;;;;;;5012930;28;20211;-59
2021/09/03 00:18:41;;;;;;;30.97;19.80;;;13.80;1.00;;;;;;5012870;28;20297;-57
2021/09/03 00:21:07;;;;;;;28.63;19.10;;;13.80;1.00;;;;;;5012591;28;20214;-60
2021/09/03 00:23:35;;;;;;;28.17;19.10;;;13.70;1.00;;;;;;5012777;28;20233;-60
2021/09/03 00:26:02;;;;;;;28.63;19.87;;;13.80;1.00;;;;;;5012632;28;20273;-61
2021/09/03 00:28:28;;;;;;;30.07;19.57;;;13.70;1.00;;;;;;5012729;28;20624;-61
2021/09/03 00:30:55;;;;;;;28.80;19.80;;;13.70;1.00;;;;;;5012528;28;20211;-61
2021/09/03 00:33:22;;;;;;;24.20;18.20;;;13.70;1.00;;;;;;5012716;28;20275;-61
2021/09/03 00:35:48;;;;;;;30.30;18.13;;;13.60;1.00;;;;;;5012331;28;20210;-61
2021/09/03 00:38:15;;;;;;;28.03;19.07;;;13.60;1.00;;;;;;5012769;28;20285;-61
2021/09/03 00:40:43;;;;;;;29.37;18.70;;;13.60;1.00;;;;;;5012418;28;20253;-61
2021/09/03 00:43:09;;;;;;;27.63;18.57;;;13.60;1.00;;;;;;5012489;28;20227;-61
2021/09/03 00:45:36;;;;;;;27.53;19.47;;;13.60;1.00;;;;;;5012391;28;20211;-61
2021/09/03 00:48:03;;;;;;;30.77;21.40;;;13.50;1.00;;;;;;5012742;28;20207;-61
2021/09/03 00:50:30;;;;;;;35.50;22.03;;;13.50;1.00;;;;;;5012130;28;20623;-61
2021/09/03 00:52:56;;;;;;;37.33;22.33;;;13.40;1.00;;;;;;5012651;28;20305;-61
2021/09/03 00:55:23;;;;;;;37.80;22.13;;;13.30;1.00;;;;;;5012540;28;20211;-61
2021/09/03 00:57:51;;;;;;;34.63;21.43;;;13.30;1.00;;;;;;5012151;28;20231;-61
2021/09/03 01:00:18;;;;;;;30.57;20.87;;;13.30;1.00;;;;;;5012461;28;20203;-61
2021/09/03 01:02:45;;;;;;;27.17;20.27;;;13.30;1.00;;;;;;5012395;28;20257;-61
2021/09/03 01:05:12;;;;;;;29.87;19.37;;;13.30;1.00;;;;;;5012016;28;20210;-61
2021/09/03 01:07:39;;;;;;;29.67;18.23;;;13.30;1.00;;;;;;5012428;28;20218;-61
2021/09/03 01:10:07;;;;;;;30.57;20.67;;;13.30;1.00;;;;;;5012364;28;20264;-61
2021/09/03 01:12:33;;;;;;;29.27;19.57;;;13.30;1.00;;;;;;5012048;28;20226;-60
2021/09/03 01:15:01;;;;;;;33.60;21.50;;;13.30;1.00;;;;;;5014738;28;20257;-61
2021/09/03 01:17:28;;;;;;;38.63;22.93;;;13.30;1.00;;;;;;5016226;28;20207;-61
2021/09/03 01:19:54;;;;;;;45.77;25.40;;;13.20;1.00;;;;;;5015974;28;20710;-61
2021/09/03 01:22:23;;;;;;;42.03;25.43;;;13.10;1.00;;;;;;5016109;28;20210;-61
2021/09/03 01:24:50;;;;;;;43.33;24.60;;;13.10;1.00;;;;;;5015848;28;20214;-61
2021/09/03 01:27:17;;;;;;;41.60;24.17;;;13.10;1.00;;;;;;5016050;28;20242;-58
2021/09/03 01:29:43;;;;;;;40.43;23.90;;;13.10;1.00;;;;;;5015925;28;20257;-60
2021/09/03 01:32:10;;;;;;;36.63;24.10;;;13.10;1.00;;;;;;5015766;28;20214;-60
2021/09/03 01:34:37;;;;;;;35.43;22.83;;;13.20;1.00;;;;;;5015904;28;20211;-60
2021/09/03 01:37:04;;;;;;;36.13;22.47;;;13.20;1.00;;;;;;5016091;28;20656;-60
2021/09/03 01:39:32;;;;;;;37.53;23.20;;;13.20;1.00;;;;;;5015619;28;20273;-58
2021/09/03 01:41:59;;;;;;;35.53;22.67;;;13.10;1.00;;;;;;5015831;28;20249;-60
2021/09/03 01:44:25;;;;;;;32.80;21.87;;;13.10;1.00;;;;;;5015277;28;20780;-60
2021/09/03 01:46:52;;;;;;;32.73;21.87;;;13.10;1.00;;;;;;5015937;28;20620;-60
2021/09/03 01:49:19;;;;;;;31.57;19.77;;;13.10;1.00;;;;;;5015620;28;20201;-60
2021/09/03 01:51:45;;;;;;;33.57;20.47;;;13.10;1.00;;;;;;5015838;28;20556;-60
2021/09/03 01:54:12;;;;;;;35.37;20.97;;;13.00;1.00;;;;;;5015559;28;20230;-61
2021/09/03 01:56:40;;;;;;;32.07;21.90;;;13.00;1.00;;;;;;5015509;28;20214;-61
2021/09/03 01:59:07;;;;;;;34.10;21.90;;;13.00;1.00;;;;;;5015210;28;20353;-60
2021/09/03 02:01:33;;;;;;;37.37;22.10;;;13.00;1.00;;;;;;5015324;28;20207;-61
2021/09/03 02:04:00;;;;;;;33.93;21.97;;;13.00;1.00;;;;;;5015308;28;20245;-61
2021/09/03 02:06:27;;;;;;;37.40;23.33;;;13.00;1.00;;;;;;5015326;28;20239;-61
2021/09/03 02:08:54;;;;;;;38.43;23.33;;;12.90;1.00;;;;;;5015352;28;20203;-61
2021/09/03 02:11:20;;;;;;;35.93;22.70;;;12.90;1.00;;;;;;5015107;28;20694;-61
2021/09/03 02:13:48;;;;;;;42.97;23.90;;;13.00;1.00;;;;;;5014789;28;20579;-60
2021/09/03 02:16:15;;;;;;;39.80;24.23;;;12.90;1.00;;;;;;5015208;28;20240;-60
2021/09/03 02:18:41;;;;;;;39.03;23.43;;;12.90;1.00;;;;;;5015071;28;20226;-60
2021/09/03 02:21:08;;;;;;;41.40;24.30;;;12.90;1.00;;;;;;5015146;28;20697;-60
2021/09/03 02:23:35;;;;;;;40.90;23.73;;;12.80;16.00;;;;;;5014802;28;20226;-60
2021/09/03 02:26:01;;;;;;;39.60;22.83;;;12.80;29.80;;;;;;5014627;28;20247;-60
2021/09/03 02:28:28;;;;;;;36.30;22.47;;;12.80;26.90;;;;;;5014747;28;20205;-60
2021/09/03 02:30:56;;;;;;;34.53;21.10;;;12.80;25.20;;;;;;5014981;28;20209;-60
2021/09/03 02:33:23;;;;;;;28.60;20.13;;;12.80;20.00;;;;;;5014695;28;20647;-60
2021/09/03 02:35:49;;;;;;;36.53;21.13;;;12.80;19.60;;;;;;5014816;28;20213;-59
2021/09/03 02:38:16;;;;;;;38.93;21.27;;;12.80;22.30;;;;;;5014598;28;20234;-60
2021/09/03 02:40:42;;;;;;;36.90;21.27;;;12.80;17.80;;;;;;5014661;28;20211;-60
2021/09/03 02:43:09;;;;;;;33.60;20.50;;;12.70;19.60;;;;;;5014558;28;20287;-60
2021/09/03 02:45:36;;;;;;;30.77;19.87;;;12.70;16.60;;;;;;5014692;28;20230;-60
2021/09/03 02:48:05;;;;;;;34.23;21.47;;;12.70;13.70;;;;;;5014561;28;20207;-60
2021/09/03 02:50:32;;;;;;;33.27;20.90;;;12.70;13.10;;;;;;5014622;28;20210;-60
2021/09/03 02:52:59;;;;;;;32.13;20.23;;;12.70;7.50;;;;;;5014277;28;20231;-60
2021/09/03 02:55:26;;;;;;;29.70;20.07;;;12.70;1.90;;;;;;5014193;28;20210;-59
2021/09/03 02:57:53;;;;;;;32.30;20.50;;;12.70;1.00;;;;;;5014301;28;20655;-60
2021/09/03 03:00:19;;;;;;;33.10;20.30;;;12.70;1.00;;;;;;5014509;28;20223;-60
2021/09/03 03:02:46;;;;;;;29.90;20.30;;;12.60;1.00;;;;;;5014238;28;20236;-60
2021/09/03 03:05:15;;;;;;;33.40;20.83;;;12.60;1.00;;;;;;5014068;28;20214;-60
2021/09/03 03:07:41;;;;;;;32.33;20.00;;;12.60;1.00;;;;;;5014268;28;20216;-60
2021/09/03 03:10:09;;;;;;;37.17;21.53;;;12.60;1.00;;;;;;5014008;28;20230;-60
2021/09/03 03:12:36;;;;;;;32.57;21.03;;;12.60;1.00;;;;;;5014225;28;20226;-60
2021/09/03 03:15:03;;;;;;;31.77;20.10;;;12.60;1.00;;;;;;5014015;28;20300;-60
2021/09/03 03:17:29;;;;;;;34.27;21.07;;;12.60;1.00;;;;;;5014049;28;20218;-60
2021/09/03 03:19:56;;;;;;;36.33;21.43;;;12.60;1.00;;;;;;5013799;28;20656;-60
2021/09/03 03:22:24;;;;;;;34.27;21.27;;;12.50;1.00;;;;;;5013998;28;20348;-60
2021/09/03 03:24:51;;;;;;;35.60;22.10;;;12.50;1.00;;;;;;5013707;28;20270;-60
2021/09/03 03:27:17;;;;;;;37.87;22.30;;;12.50;1.00;;;;;;5014079;28;20206;-60
2021/09/03 03:29:44;;;;;;;39.97;22.50;;;12.40;1.00;;;;;;5013931;28;20213;-60
2021/09/03 03:32:11;;;;;;;41.87;22.23;;;12.40;1.00;;;;;;5013645;28;20634;-60
2021/09/03 03:34:37;;;;;;;44.37;23.30;;;12.50;1.00;;;;;;5013589;28;20213;-59
2021/09/03 03:37:05;;;;;;;34.10;22.57;;;12.50;1.00;;;;;;5012843;28;20210;-60
2021/09/03 03:39:33;;;;;;;36.53;22.43;;;12.50;2.30;;;;;;5013724;28;20259;-59
2021/09/03 03:41:59;;;;;;;42.47;23.60;;;12.50;13.20;;;;;;5013528;28;20215;-60
2021/09/03 03:44:26;;;;;;;36.87;23.47;;;12.50;17.60;;;;;;5013347;28;20285;-60
2021/09/03 03:46:53;;;;;;;41.37;24.27;;;12.50;27.50;;;;;;5013332;28;20213;-59
2021/09/03 03:49:20;;;;;;;35.40;22.87;;;12.50;39.20;;;;;;5013368;28;20264;-59
2021/09/03 03:51:46;;;;;;;37.97;22.97;;;12.50;48.40;;;;;;5013007;28;20205;-60
2021/09/03 03:54:13;;;;;;;35.17;23.67;;;12.50;52.10;;;;;;5013287;28;20837;-60
2021/09/03 03:56:41;;;;;;;37.43;23.00;;;12.50;60.50;;;;;;5013071;28;20735;-60
2021/09/03 03:59:07;;;;;;;39.03;23.50;;;12.60;67.40;;;;;;5013235;28;20771;-60
2021/09/03 04:01:35;;;;;;;37.40;24.10;;;12.50;72.70;;;;;;5013220;28;20207;-60
2021/09/03 04:04:01;;;;;;;39.33;24.63;;;12.50;81.30;;;;;;5012853;28;20244;-59
2021/09/03 04:06:28;;;;;;;44.20;25.30;;;12.50;90.80;;;;;;5013322;28;20217;-59
2021/09/03 04:08:55;;;;;;;41.27;23.97;;;12.50;93.10;;;;;;5013238;28;20214;-59
2021/09/03 04:11:21;;;;;;;43.77;22.37;;;12.50;93.50;;;;;;5013280;28;20260;-59
2021/09/03 04:13:49;;;;;;;40.97;22.03;;;12.50;92.60;;;;;;5012572;28;20776;-59
2021/09/03 04:16:16;;;;;;;35.00;21.77;;;12.50;92.60;;;;;;5013140;28;20215;-59
2021/09/03 04:18:43;;;;;;;36.07;21.87;;;12.50;93.90;;;;;;5012658;28;20560;-59
2021/09/03 04:21:09;;;;;;;36.73;22.67;;;12.50;93.30;;;;;;5012828;28;20270;-60
2021/09/03 04:23:36;;;;;;;37.67;22.93;;;12.50;95.70;;;;;;5012671;28;20257;-58
2021/09/03 04:26:02;;;;;;;34.67;21.57;;;12.50;94.70;;;;;;5012728;28;20295;-59
2021/09/03 04:28:29;;;;;;;33.07;21.43;;;12.40;94.40;;;;;;5012590;28;20206;-60
2021/09/03 04:30:57;;;;;;;32.57;21.53;;;12.50;93.10;;;;;;5012920;28;20207;-59
2021/09/03 04:33:23;;;;;;;32.63;20.50;;;12.50;92.80;;;;;;5012376;28;20703;-59
2021/09/03 04:35:50;;;;;;;29.50;19.93;;;12.50;90.70;;;;;;5012681;28;20210;-59
2021/09/03 04:38:17;;;;;;;34.23;19.53;;;12.40;72.50;;;;;;5012732;28;20206;-60
2021/09/03 04:40:44;;;;;;;30.90;19.73;;;12.40;57.30;;;;;;5012330;28;20223;-58
2021/09/03 04:43:10;;;;;;;29.53;18.77;;;12.40;54.00;;;;;;5012599;28;20255;-60
2021/09/03 04:45:37;;;;;;;29.37;17.70;;;12.30;46.50;;;;;;5012331;28;20212;-58
2021/09/03 04:48:06;;;;;;;26.60;18.17;;;12.30;40.70;;;;;;5011859;28;20209;-59
2021/09/03 04:50:33;;;;;;;27.90;19.57;;;12.30;38.30;;;;;;5012186;28;20208;-60
2021/09/03 04:52:59;;;;;;;26.70;18.87;;;12.30;27.50;;;;;;5012396;28;20237;-59
2021/09/03 04:55:26;;;;;;;32.73;18.80;;;12.30;24.10;;;;;;5012163;28;20677;-58
2021/09/03 04:57:53;;;;;;;31.90;19.40;;;12.30;26.60;;;;;;5012312;28;20210;-59
2021/09/03 05:00:19;;;;;;;33.83;20.13;;;12.20;27.40;;;;;;5012172;28;20284;-59
2021/09/03 05:02:48;;;;;;;36.83;21.93;;;12.20;32.30;;;;;;5012401;28;20231;-59
2021/09/03 05:05:16;;;;;;;40.67;22.10;;;12.10;50.30;;;;;;5012318;28;20203;-57
2021/09/03 05:07:43;;;;;;;36.87;21.40;;;12.10;77.00;;;;;;5012345;28;20362;-59
2021/09/03 05:10:11;;;;;;;35.40;19.80;;;12.10;80.70;;;;;;5012130;28;20203;-60
2021/09/03 05:12:38;;;;;;;32.60;20.40;;;12.10;82.40;;;;;;5012236;28;20275;-60
2021/09/03 05:15:09;;;;;;;32.73;20.30;;;12.10;81.60;;;;;;5012189;28;20388;-60
2021/09/03 05:17:35;;;;;;;32.30;20.40;;;12.10;87.90;;;;;;5012292;28;20207;-59
2021/09/03 05:20:03;;;;;;;33.37;20.43;;;12.10;90.60;;;;;;5012172;28;20233;-58
2021/09/03 05:22:32;;;;;;;34.90;21.07;;;12.10;92.30;;;;;;5012027;28;20216;-60
2021/09/03 05:24:59;;;;;;;35.03;21.53;;;12.10;99.60;;;;;;5012206;28;20303;-59
2021/09/03 05:27:26;;;;;;;37.60;21.50;;;12.10;99.90;;;;;;5011916;28;20269;-59
2021/09/03 05:29:52;;;;;;;31.40;20.33;;;12.10;99.90;;;;;;5012137;28;20208;-57
2021/09/03 05:32:19;;;;;;;29.37;20.70;;;12.10;99.90;;;;;;5012058;28;20265;-59
2021/09/03 05:34:45;;;;;;;30.70;20.27;;;12.20;99.90;;;;;;5011998;28;20356;-58
2021/09/03 05:37:12;;;;;;;32.20;20.53;;;12.20;99.90;;;;;;5011755;28;20209;-60
2021/09/03 05:39:40;;;;;;;30.30;19.47;;;12.20;99.90;;;;;;5011868;28;20706;-59
2021/09/03 05:42:07;;;;;;;28.60;20.83;;;12.30;99.90;;;;;;5011736;28;20210;-59
2021/09/03 05:44:34;;;;;;;29.13;20.67;;;12.30;99.90;;;;;;5011615;28;20707;-59
2021/09/03 05:47:01;;;;;;;29.47;20.10;;;12.40;99.90;;;;;;5011985;28;20203;-60
2021/09/03 05:49:27;;;;;;;32.60;20.53;;;12.40;99.90;;;;;;5011659;28;20664;-59
2021/09/03 05:51:54;;;;;;;30.70;20.77;;;12.50;99.90;;;;;;5012011;28;20214;-59
2021/09/03 05:54:20;;;;;;;31.17;19.97;;;12.50;99.90;;;;;;5011355;28;20284;-59
2021/09/03 05:56:48;;;;;;;32.97;21.10;;;12.60;99.90;;;;;;5011559;28;20210;-60
2021/09/03 05:59:15;;;;;;;31.30;21.27;;;12.70;99.90;;;;;;5011545;28;20214;-57
2021/09/03 06:01:41;;;;;;;29.23;19.90;;;12.80;99.90;;;;;;5014052;28;20324;-59
2021/09/03 06:04:08;;;;;;;32.33;21.07;;;12.80;99.90;;;;;;5014152;28;20684;-59
2021/09/03 06:06:35;;;;;;;31.67;20.00;;;12.90;99.90;;;;;;5014976;28;20211;-59
2021/09/03 06:09:01;;;;;;;31.53;20.50;;;12.90;99.90;;;;;;5015251;28;20211;-60
2021/09/03 06:11:28;;;;;;;32.20;20.60;;;13.00;99.90;;;;;;5014917;28;20207;-60
2021/09/03 06:13:57;;;;;;;35.77;21.17;;;13.00;99.90;;;;;;5015186;28;20277;-59
2021/09/03 06:16:24;;;;;;;29.17;21.03;;;13.10;99.90;;;;;;5015103;28;20265;-60
2021/09/03 06:18:51;;;;;;;33.47;24.07;;;13.20;99.90;;;;;;5014944;28;20680;-60
2021/09/03 06:21:18;;;;;;;28.37;20.43;;;13.30;99.90;;;;;;5014878;28;20227;-59
2021/09/03 06:23:45;;;;;;;30.53;19.40;;;13.40;99.90;;;;;;5014761;28;20223;-60
2021/09/03 06:26:12;;;;;;;26.43;17.93;;;13.50;99.90;;;;;;5015000;28;20257;-60
2021/09/03 06:28:38;;;;;;;25.70;17.97;;;13.50;99.90;;;;;;5014910;28;20206;-59
2021/09/03 06:31:07;;;;;;;25.70;18.13;;;13.60;99.90;;;;;;5014989;28;20211;-60
2021/09/03 06:33:33;;;;;;;24.90;18.13;;;13.70;99.90;;;;;;5014712;28;20223;-59
2021/09/03 06:36:00;;;;;;;26.00;17.07;;;13.80;99.90;;;;;;5014591;28;20617;-60
2021/09/03 06:38:27;;;;;;;21.33;16.33;;;13.80;99.90;;;;;;5014520;28;20214;-61
2021/09/03 06:40:54;;;;;;;21.40;17.23;;;13.90;99.90;;;;;;4996536;28;20718;-61
2021/09/03 06:43:20;;;;;;;21.23;15.73;;;14.00;90.20;;;;;;4994466;28;20278;-61
2021/09/03 06:45:47;;;;;;;23.57;16.53;;;14.10;38.90;;;;;;4994523;28;20754;-61
2021/09/03 06:48:17;;;;;;;23.07;16.03;;;14.10;15.20;;;;;;4994564;28;20266;-61
2021/09/03 06:50:43;;;;;;;23.00;15.60;;;14.20;1.00;;;;;;4994156;28;20579;-61
2021/09/03 06:53:10;;;;;;;20.10;14.47;;;14.20;1.00;;;;;;4994297;28;20239;-61
2021/09/03 06:55:37;;;;;;;20.30;15.13;;;14.30;1.00;;;;;;4994625;28;20216;-60
2021/09/03 06:58:03;;;;;;;24.80;17.53;;;14.50;1.00;;;;;;4994754;28;20290;-61
2021/09/03 07:00:30;;;;;;;19.30;14.00;;;14.50;1.00;;;;;;4994258;28;20227;-61
2021/09/03 07:02:57;;;;;;;18.07;13.27;;;14.60;99.90;;;;;;4994393;28;20231;-61
2021/09/03 07:05:25;;;;;;;18.57;13.43;;;14.70;99.90;;;;;;4994131;28;20211;-61
2021/09/03 07:07:51;;;;;;;22.53;13.60;;;14.80;99.90;;;;;;4994520;28;20632;-63
2021/09/03 07:10:18;;;;;;;19.17;13.43;;;14.80;99.90;;;;;;4994127;28;20212;-61
2021/09/03 07:12:45;;;;;;;19.93;14.17;;;14.90;99.90;;;;;;4993429;28;20231;-61
2021/09/03 07:15:12;;;;;;;17.60;13.47;;;15.00;99.90;;;;;;4994130;28;20669;-61
2021/09/03 07:17:39;;;;;;;17.70;13.90;;;15.10;99.90;;;;;;4994268;28;20207;-61
2021/09/03 07:20:07;;;;;;;18.00;13.33;;;15.20;99.90;;;;;;4993684;28;20270;-62
2021/09/03 07:22:35;;;;;;;18.07;12.83;;;15.30;99.90;;;;;;4993789;28;20716;-62
2021/09/03 07:25:03;;;;;;;21.40;13.23;;;15.40;99.90;;;;;;4993841;28;20266;-61
2021/09/03 07:27:30;;;;;;;18.47;13.40;;;15.60;99.90;;;;;;4993883;28;20212;-62
2021/09/03 07:29:56;;;;;;;19.43;12.90;;;15.70;99.90;;;;;;4994235;28;20211;-61
2021/09/03 07:32:23;;;;;;;16.63;12.53;;;15.90;1.00;;;;;;4993595;28;20735;-61
2021/09/03 07:34:49;;;;;;;15.80;11.90;;;16.00;99.90;;;;;;4994167;28;20270;-61
2021/09/03 07:37:16;;;;;;;14.13;11.17;;;16.20;99.90;;;;;;4994072;28;20266;-65
2021/09/03 07:39:44;;;;;;;16.90;11.67;;;16.30;99.90;;;;;;4993531;28;20699;-61
2021/09/03 07:42:11;;;;;;;14.80;10.87;;;16.40;99.90;;;;;;4994018;28;20672;-61
2021/09/03 07:44:38;;;;;;;17.67;10.87;;;16.60;1.00;;;;;;4993835;28;20262;-61
2021/09/03 07:47:04;;;;;;;12.00;9.80;;;16.70;50.00;;;;;;4993513;28;20212;-61
2021/09/03 07:49:31;;;;;;;13.97;10.10;;;16.80;99.90;;;;;;4993614;28;20592;-61
2021/09/03 07:51:58;;;;;;;15.13;10.13;;;16.90;1.00;;;;;;4993122;28;20703;-61
2021/09/03 07:54:24;;;;;;;13.80;10.03;;;17.10;99.90;;;;;;4993143;28;20227;-61
2021/09/03 07:56:52;;;;;;;13.17;9.63;;;17.20;99.90;;;;;;4993455;28;20208;-60
2021/09/03 07:59:19;;;;;;;13.63;9.20;;;17.30;99.90;;;;;;4993431;28;20724;-61
2021/09/03 08:01:46;;;;;;;12.37;9.67;;;17.40;99.90;;;;;;4992809;28;20323;-61
2021/09/03 08:04:13;;;;;;;11.33;9.23;;;17.50;1.00;;;;;;4993302;28;20650;-60
2021/09/03 08:06:41;;;;;;;13.63;9.30;;;17.60;1.00;;;;;;4993244;28;20216;-57
2021/09/03 08:09:08;;;;;;;10.87;8.50;;;17.80;1.00;;;;;;4993540;28;20211;-61
2021/09/03 08:11:35;;;;;;;14.90;10.10;;;17.90;1.00;;;;;;4992911;28;20254;-61
2021/09/03 08:14:03;;;;;;;13.10;9.47;;;18.00;1.00;;;;;;4992836;28;20601;-61
2021/09/03 08:16:30;;;;;;;11.67;8.57;;;18.10;99.90;;;;;;4993080;28;20266;-62
2021/09/03 08:18:56;;;;;;;13.77;9.23;;;18.20;99.90;;;;;;4993078;28;20243;-63
2021/09/03 08:21:23;;;;;;;12.63;9.23;;;18.20;99.90;;;;;;4992803;28;20227;-63
2021/09/03 08:23:50;;;;;;;11.60;8.67;;;18.30;99.90;;;;;;4992367;28;20235;-63
2021/09/03 08:26:16;;;;;;;15.83;9.30;;;18.50;99.90;;;;;;4992908;28;20212;-63
2021/09/03 08:28:43;;;;;;;12.17;8.70;;;18.50;99.90;;;;;;4992529;28;20208;-62
2021/09/03 08:31:11;;;;;;;13.40;8.00;;;18.60;92.80;;;;;;4992729;28;20219;-59
2021/09/03 08:33:38;;;;;;;15.67;8.47;;;18.80;99.90;;;;;;4992630;28;20612;-61
2021/09/03 08:36:05;;;;;;;12.43;9.03;;;18.90;99.90;;;;;;4992706;28;20229;-61
2021/09/03 08:38:32;;;;;;;12.07;8.90;;;19.10;76.10;;;;;;4992652;28;20204;-60
2021/09/03 08:40:59;;;;;;;12.33;8.63;;;19.20;1.00;;;;;;4992267;28;20298;-61
2021/09/03 08:43:26;;;;;;;13.50;9.23;;;19.30;26.10;;;;;;4992321;28;20224;-61
2021/09/03 08:45:53;;;;;;;11.70;8.53;;;19.40;1.00;;;;;;4992654;28;20212;-61
2021/09/03 08:48:24;;;;;;;12.83;8.70;;;19.50;1.00;;;;;;4992503;28;20204;-61
2021/09/03 08:50:53;;;;;;;12.40;9.03;;;19.50;1.00;;;;;;4991999;28;20242;-61
2021/09/03 08:53:21;;;;;;;13.47;9.27;;;19.60;1.00;;;;;;4992431;28;20227;-61
2021/09/03 08:55:50;;;;;;;15.67;9.20;;;19.70;1.00;;;;;;4992252;28;20420;-62
2021/09/03 08:58:17;;;;;;;14.43;10.03;;;19.80;1.00;;;;;;4992742;28;20222;-62
2021/09/03 09:00:45;;;;;;;12.67;8.77;;;19.80;1.00;;;;;;4992596;28;20227;-62
2021/09/03 09:03:14;;;;;;;12.77;8.37;;;19.90;1.00;;;;;;5010675;28;20223;-62
2021/09/03 09:05:51;;;;;;;11.67;7.93;;;20.00;1.00;;;;;;5002763;28;20213;-62
2021/09/03 09:08:19;;;;;;;10.97;8.07;;;20.10;1.00;;;;;;4992343;28;20301;-62
2021/09/03 09:10:52;;;;;;;13.23;7.53;;;20.20;1.00;;;;;;4992907;28;20210;-62
2021/09/03 09:13:21;;;;;;;12.77;8.07;;;20.40;1.00;;;;;;4992545;28;20227;-62
2021/09/03 09:16:07;;;;;;;12.03;7.90;;;20.50;1.00;;;;;;4991048;28;20210;-62
2021/09/03 09:18:35;;;;;;;13.20;7.73;;;20.60;1.00;;;;;;4992467;28;20211;-62
2021/09/03 09:21:29;;;;;;;13.10;7.83;;;20.70;1.00;;;;;;4992519;28;20273;-62
2021/09/03 09:23:58;;;;;;;14.30;8.20;;;20.80;1.00;;;;;;4969593;28;20607;-62
2021/09/03 09:26:28;;;;;;;13.23;8.10;;;20.90;1.00;;;;;;4993008;28;20212;-62
2021/09/03 09:28:56;;;;;;;15.17;8.30;;;21.00;1.00;;;;;;4992594;28;20262;-62
2021/09/03 09:31:36;;;;;;;11.07;7.23;;;21.00;1.00;;;;;;4992324;28;20214;-62
2021/09/03 09:34:14;;;;;;;10.23;6.73;;;21.00;1.00;;;;;;4992319;28;20326;-62
2021/09/03 09:36:42;;;;;;;14.27;7.53;;;21.10;1.00;;;;;;4996109;28;20207;-62
2021/09/03 09:39:09;;;;;;;10.33;7.27;;;21.20;1.00;;;;;;4996445;28;20211;-62
2021/09/03 09:41:35;;;;;;;11.10;7.23;;;21.20;1.00;;;;;;4996038;28;20220;-62
2021/09/03 09:44:03;;;;;;;10.40;7.57;;;21.30;1.00;;;;;;4995876;28;20654;-62
2021/09/03 09:46:31;;;;;;;11.50;7.33;;;21.40;1.00;;;;;;4996285;28;20215;-62
2021/09/03 09:49:06;;;;;;;10.10;7.50;;;21.40;1.00;;;;;;4996362;28;20262;-62
2021/09/03 09:51:39;;;;;;;9.93;7.07;;;21.40;1.00;;;;;;4996139;28;20203;-62
2021/09/03 09:54:09;;;;;;;10.33;8.03;;;21.40;1.00;;;;;;4995504;28;20232;-62
2021/09/03 09:56:38;;;;;;;14.83;8.27;;;21.30;1.00;;;;;;4996104;28;20226;-62
2021/09/03 09:59:07;;;;;;;13.00;8.03;;;21.40;1.00;;;;;;4995968;28;20212;-62
2021/09/03 10:01:35;;;;;;;15.63;8.70;;;21.50;1.00;;;;;;4995872;28;20251;-62
2021/09/03 10:04:06;;;;;;;12.70;8.30;;;21.70;1.00;;;;;;4995553;28;20224;-62
2021/09/03 10:06:34;;;;;;;12.13;8.00;;;21.80;1.00;;;;;;4995818;28;20208;-62
2021/09/03 10:09:02;;;;;;;11.37;8.43;;;21.90;1.00;;;;;;4995952;28;20211;-62
2021/09/03 10:11:30;;;;;;;12.30;9.07;;;21.90;1.00;;;;;;4995932;28;20204;-62
2021/09/03 10:13:57;;;;;;;12.40;8.13;;;21.80;1.00;;;;;;4995271;28;20228;-62
2021/09/03 10:16:24;;;;;;;11.03;8.07;;;21.90;1.00;;;;;;4995768;28;20216;-62
2021/09/03 10:18:55;;;;;;;12.73;7.50;;;21.90;1.00;;;;;;5003502;28;20635;-62
2021/09/03 10:21:23;;;;;;;11.33;7.73;;;22.00;1.00;;;;;;5014821;28;20222;-64
2021/09/03 10:23:53;;;;;;;12.40;7.33;;;22.10;1.00;;;;;;5014363;28;20227;-65
2021/09/03 10:26:24;;;;;;;14.13;8.30;;;22.20;1.00;;;;;;5014825;28;20210;-64
2021/09/03 10:29:26;;;;;;;13.67;7.70;;;22.20;1.00;;;;;;5014608;28;20211;-64
2021/09/03 10:32:24;;;;;;;16.03;12.10;;;22.40;1.00;;;;;;5011346;28;20662;-61
2021/09/03 10:35:13;;;;;;;12.47;9.60;;;22.60;1.00;;;;;;5014290;28;20213;-61
2021/09/03 10:37:40;;;;;;;12.10;8.27;;;22.70;1.00;;;;;;5014063;28;20261;-62
2021/09/03 10:40:30;;;;;;;11.67;8.23;;;22.70;1.00;;;;;;5014007;28;20253;-59
2021/09/03 10:42:58;;;;;;;9.80;7.70;;;22.60;1.00;;;;;;5010544;28;20300;-63
2021/09/03 10:45:35;;;;;;;11.53;8.63;;;22.60;1.00;;;;;;5014288;28;20211;-63
2021/09/03 10:48:13;;;;;;;12.73;8.03;;;22.40;1.00;;;;;;5012928;28;20584;-63
2021/09/03 10:50:45;;;;;;;14.90;8.27;;;22.60;1.00;;;;;;5014338;28;20268;-62
2021/09/03 10:53:19;;;;;;;12.50;8.03;;;22.60;1.00;;;;;;5014240;28;20235;-60
2021/09/03 10:56:00;;;;;;;10.27;7.07;;;22.70;1.00;;;;;;5014255;28;20298;-64
2021/09/03 10:58:39;;;;;;;11.23;7.73;;;22.80;1.00;;;;;;5013982;28;20210;-63
2021/09/03 11:01:50;;;;;;;10.07;7.00;;;22.60;1.00;;;;;;5013777;28;20782;-62
2021/09/03 11:04:18;;;;;;;11.50;7.30;;;22.50;1.00;;;;;;5013666;28;20234;-63
2021/09/03 11:07:04;;;;;;;10.03;7.20;;;22.60;1.00;;;;;;5013791;28;20203;-63
2021/09/03 11:09:32;;;;;;;11.03;7.07;;;22.70;99.90;;;;;;5013669;28;20582;-62
2021/09/03 11:12:01;;;;;;;13.37;7.60;;;22.60;99.90;;;;;;5013490;28;20703;-63
2021/09/03 11:14:29;;;;;;;11.30;7.67;;;22.70;1.00;;;;;;5013907;28;20235;-63
2021/09/03 11:16:58;;;;;;;11.00;7.80;;;22.80;99.90;;;;;;5014003;28;20671;-63
2021/09/03 11:19:30;;;;;;;10.00;7.13;;;22.60;99.90;;;;;;5013568;28;20590;-62
2021/09/03 11:21:59;;;;;;;12.27;7.67;;;22.60;99.90;;;;;;5013482;28;20229;-62
2021/09/03 11:24:28;;;;;;;8.83;7.27;;;22.70;99.90;;;;;;5014120;28;20652;-63
2021/09/03 11:26:56;;;;;;;14.67;8.00;;;22.90;1.00;;;;;;5013514;28;20207;-62
2021/09/03 11:29:27;;;;;;;12.00;7.67;;;23.00;99.90;;;;;;5013488;28;20265;-62
2021/09/03 11:32:07;;;;;;;9.03;7.50;;;23.00;99.90;;;;;;5013270;28;20209;-64
2021/09/03 11:35:03;;;;;;;9.70;7.70;;;23.20;99.90;;;;;;5013418;28;20230;-63
2021/09/03 11:37:36;;;;;;;9.80;7.43;;;23.10;99.90;;;;;;5013740;28;20257;-64
2021/09/03 11:40:12;;;;;;;10.10;7.67;;;23.30;99.90;;;;;;5013528;28;20206;-63
2021/09/03 11:42:40;;;;;;;13.17;8.33;;;23.20;99.90;;;;;;5013270;28;20285;-64
2021/09/03 11:45:09;;;;;;;12.20;8.93;;;23.20;99.90;;;;;;5013247;28;20207;-63
2021/09/03 11:47:38;;;;;;;11.87;8.60;;;23.10;99.90;;;;;;5013496;28;20218;-63
2021/09/03 11:50:10;;;;;;;12.37;7.67;;;23.20;99.90;;;;;;5013232;28;20722;-64
2021/09/03 11:52:38;;;;;;;11.07;7.37;;;23.30;1.00;;;;;;5012102;28;20219;-64
2021/09/03 11:55:08;;;;;;;8.00;7.03;;;23.60;1.00;;;;;;5013034;28;20261;-64
2021/09/03 11:57:53;;;;;;;9.67;6.97;;;23.80;1.00;;;;;;5013075;28;20289;-63
2021/09/03 12:00:21;;;;;;;8.37;7.07;;;23.90;99.90;;;;;;5013190;28;20675;-64
2021/09/03 12:02:49;;;;;;;9.70;7.83;;;23.90;99.90;;;;;;5013175;28;20662;-63
2021/09/03 12:05:18;;;;;;;13.23;7.67;;;23.90;99.90;;;;;;5012680;28;20211;-63
2021/09/03 12:08:00;;;;;;;9.87;7.63;;;23.70;99.90;;;;;;5013205;28;20203;-64
2021/09/03 12:10:32;;;;;;;11.63;8.60;;;23.90;99.90;;;;;;5013212;28;20631;-63
2021/09/03 12:13:05;;;;;;;12.83;8.73;;;23.70;99.90;;;;;;5013134;28;20231;-64
2021/09/03 12:15:32;;;;;;;11.83;7.40;;;23.80;99.90;;;;;;5012706;28;20214;-63
2021/09/03 12:17:59;;;;;;;10.00;7.30;;;23.90;99.90;;;;;;5012761;28;20222;-63
2021/09/03 12:20:31;;;;;;;10.70;7.77;;;23.90;99.90;;;;;;5012813;28;20663;-64
2021/09/03 12:22:58;;;;;;;13.00;8.37;;;23.90;99.90;;;;;;5012850;28;20234;-64
2021/09/03 12:25:33;;;;;;;9.53;7.63;;;24.00;99.90;;;;;;5012572;28;20640;-64
2021/09/03 12:28:11;;;;;;;13.10;8.20;;;24.00;99.90;;;;;;5012658;28;20675;-64
2021/09/03 12:30:38;;;;;;;13.13;8.40;;;24.10;99.90;;;;;;5012728;28;20265;-64
2021/09/03 12:33:29;;;;;;;9.63;8.10;;;24.20;99.90;;;;;;5012639;28;20223;-64
2021/09/03 12:35:58;;;;;;;11.03;8.27;;;24.50;99.90;;;;;;5012895;28;20195;-64
2021/09/03 12:38:38;;;;;;;10.50;7.73;;;24.60;99.90;;;;;;5012511;28;20261;-63
2021/09/03 12:41:07;;;;;;;10.80;7.70;;;24.90;99.90;;;;;;5012704;28;20192;-63
2021/09/03 12:43:34;;;;;;;12.13;8.47;;;24.90;99.90;;;;;;5011825;28;20785;-63